Time;durP1;ratioP1;P1;durP2;ratioP2;P2;SDS_P1;SDS_P2;PMS_P1;PMS_P2;Temp;Humidity;BMP_temperature;BMP_pressure;BME280_temperature;BME280_humidity;BME280_pressure;Samples;Min_cycle;Max_cycle;Signal;HPM_P1;HPM_P2
2021/08/18 00:02:13;;;;;;;7.15;2.83;;;;;;;13.28;53.89;101249.22;5052238;28;20044;-66
2021/08/18 00:04:38;;;;;;;11.18;2.70;;;;;;;13.40;53.45;101247.81;5041432;28;20179;-66
2021/08/18 00:07:04;;;;;;;12.73;2.28;;;;;;;13.51;53.26;101246.38;5059879;28;20122;-67
2021/08/18 00:09:30;;;;;;;7.85;2.13;;;;;;;13.24;54.63;101247.66;5038931;28;20025;-67
2021/08/18 00:11:55;;;;;;;6.25;2.38;;;;;;;13.49;53.60;101248.22;5041238;28;20025;-68
2021/08/18 00:14:21;;;;;;;5.43;2.70;;;;;;;13.41;53.86;101253.00;5036109;28;20088;-68
2021/08/18 00:16:46;;;;;;;7.75;3.20;;;;;;;13.00;55.07;101249.59;5036172;28;20298;-67
2021/08/18 00:19:12;;;;;;;8.15;2.58;;;;;;;13.23;54.62;101245.97;5042946;28;20033;-67
2021/08/18 00:21:37;;;;;;;7.80;2.55;;;;;;;13.08;55.00;101256.22;5037841;28;20037;-68
2021/08/18 00:24:04;;;;;;;7.32;2.88;;;;;;;13.45;54.31;101249.31;5037299;28;20549;-68
2021/08/18 00:26:30;;;;;;;7.15;3.88;;;;;;;13.29;54.48;101251.78;5037763;28;20043;-67
2021/08/18 00:28:56;;;;;;;5.60;2.90;;;;;;;13.53;54.20;101247.16;5035949;28;20083;-67
2021/08/18 00:31:23;;;;;;;8.07;3.08;;;;;;;13.43;54.09;101248.53;5036831;28;20449;-67
2021/08/18 00:33:49;;;;;;;7.80;2.85;;;;;;;13.44;54.44;101255.47;5037259;28;20099;-67
2021/08/18 00:36:14;;;;;;;5.13;2.80;;;;;;;13.42;54.67;101252.06;5036764;28;20040;-68
2021/08/18 00:38:40;;;;;;;6.75;2.88;;;;;;;13.45;54.34;101241.44;5037636;28;20036;-67
2021/08/18 00:41:06;;;;;;;6.53;2.97;;;;;;;13.56;53.59;101247.94;5034847;28;20040;-68
2021/08/18 00:43:34;;;;;;;5.28;2.53;;;;;;;13.51;53.99;101250.78;5036735;28;20033;-68
2021/08/18 00:45:59;;;;;;;8.25;3.53;;;;;;;13.16;54.94;101249.75;5022923;28;20054;-68
2021/08/18 00:48:25;;;;;;;10.55;3.22;;;;;;;13.03;55.09;101239.00;5037109;28;20036;-68
2021/08/18 00:50:51;;;;;;;5.50;3.17;;;;;;;12.76;55.82;101246.28;5037930;28;20029;-69
2021/08/18 00:53:16;;;;;;;4.88;2.50;;;;;;;13.01;55.19;101246.06;5051389;28;20108;-67
2021/08/18 00:55:41;;;;;;;12.63;4.05;;;;;;;12.62;56.71;101239.81;5037876;28;20028;-68
2021/08/18 00:58:08;;;;;;;7.85;3.00;;;;;;;12.82;56.20;101236.38;5035761;28;20061;-67
2021/08/18 01:00:35;;;;;;;8.75;3.90;;;;;;;12.69;56.17;101235.19;5034540;28;20048;-67
2021/08/18 01:03:00;;;;;;;10.00;3.67;;;;;;;12.87;55.66;101244.03;5040617;28;20592;-69
2021/08/18 01:05:28;;;;;;;15.45;3.35;;;;;;;12.82;55.92;101235.53;5037334;28;20056;-67
2021/08/18 01:07:55;;;;;;;6.90;3.08;;;;;;;12.77;56.20;101230.47;5038379;28;20711;-68
2021/08/18 01:10:24;;;;;;;10.60;3.20;;;;;;;12.83;55.82;101232.84;5035596;28;20033;-68
2021/08/18 01:12:50;;;;;;;11.45;3.75;;;;;;;12.84;55.48;101224.03;5034331;28;20128;-67
2021/08/18 01:15:19;;;;;;;8.27;2.75;;;;;;;12.73;55.76;101228.91;5040619;28;20045;-67
2021/08/18 01:17:47;;;;;;;15.60;3.75;;;;;;;12.53;56.88;101228.88;5050896;28;20038;-67
2021/08/18 01:20:22;;;;;;;10.07;2.70;;;;;;;12.57;56.34;101233.94;5034804;28;20034;-68
2021/08/18 01:22:49;;;;;;;10.00;3.40;;;;;;;12.59;56.65;101232.09;5034515;28;20024;-68
2021/08/18 01:25:17;;;;;;;6.13;2.85;;;;;;;12.77;55.83;101227.84;5033016;28;20044;-68
2021/08/18 01:27:46;;;;;;;7.05;3.05;;;;;;;12.75;55.96;101232.31;5035458;28;20063;-67
2021/08/18 01:30:13;;;;;;;7.78;3.28;;;;;;;12.33;57.35;101229.72;5036381;28;20060;-70
2021/08/18 01:32:46;;;;;;;7.32;2.70;;;;;;;12.44;56.85;101238.84;5036455;28;20035;-70
2021/08/18 01:35:26;;;;;;;8.65;3.05;;;;;;;12.52;56.65;101228.03;5035341;28;20116;-70
2021/08/18 01:37:52;;;;;;;8.27;3.22;;;;;;;12.40;56.81;101223.31;5035161;28;20063;-70
2021/08/18 01:40:19;;;;;;;9.75;3.63;;;;;;;12.24;56.87;101221.31;5036598;28;20026;-70
2021/08/18 01:42:45;;;;;;;13.43;3.47;;;;;;;12.39;56.91;101219.84;5035500;28;20509;-70
2021/08/18 01:45:21;;;;;;;7.18;3.55;;;;;;;12.32;56.83;101217.56;5035637;28;20052;-71
2021/08/18 01:47:47;;;;;;;6.95;3.10;;;;;;;12.47;56.04;101211.66;5035698;28;20054;-71
2021/08/18 01:50:13;;;;;;;12.82;3.13;;;;;;;12.45;56.29;101216.13;5035275;28;20037;-71
2021/08/18 01:52:39;;;;;;;8.18;3.03;;;;;;;11.96;57.88;101219.00;5035827;28;20031;-71
2021/08/18 01:55:05;;;;;;;7.65;3.30;;;;;;;11.86;57.91;101220.25;5053824;28;20052;-70
2021/08/18 01:57:31;;;;;;;9.27;3.08;;;;;;;12.10;57.52;101207.09;5038776;28;20514;-71
2021/08/18 01:59:57;;;;;;;10.60;3.45;;;;;;;12.03;57.63;101198.63;5033994;28;20037;-70
2021/08/18 02:02:26;;;;;;;8.93;3.17;;;;;;;12.22;56.89;101201.34;5033863;28;20036;-70
2021/08/18 02:04:52;;;;;;;8.63;3.05;;;;;;;12.17;56.53;101195.44;5042226;28;20483;-70
2021/08/18 02:07:17;;;;;;;9.13;3.38;;;;;;;12.16;56.72;101194.59;5041270;28;20059;-73
2021/08/18 02:09:43;;;;;;;8.05;3.40;;;;;;;12.25;56.36;101183.72;5038211;28;20029;-72
2021/08/18 02:12:11;;;;;;;7.47;3.38;;;;;;;12.25;56.07;101188.97;5036501;28;20041;-71
2021/08/18 02:14:37;;;;;;;6.00;2.08;;;;;;;12.13;56.68;101188.63;5034862;28;20547;-72
2021/08/18 02:17:03;;;;;;;6.35;2.47;;;;;;;11.62;58.20;101203.72;5033492;28;20037;-72
2021/08/18 02:19:29;;;;;;;10.23;3.30;;;;;;;12.10;56.78;101189.59;5036192;28;20025;-72
2021/08/18 02:21:54;;;;;;;8.57;2.80;;;;;;;12.06;57.16;101188.03;5042261;28;20513;-68
2021/08/18 02:24:20;;;;;;;7.03;3.05;;;;;;;11.97;57.54;101183.16;5036666;28;20079;-69
2021/08/18 02:26:45;;;;;;;7.00;2.50;;;;;;;12.26;56.24;101181.94;5036873;28;20033;-69
2021/08/18 02:29:10;;;;;;;6.05;2.72;;;;;;;12.27;56.04;101187.13;5035884;28;20469;-68
2021/08/18 02:31:36;;;;;;;7.53;2.88;;;;;;;11.82;57.38;101189.88;5037759;28;20235;-69
2021/08/18 02:34:01;;;;;;;5.90;2.95;;;;;;;11.91;57.33;101172.94;5036430;28;20037;-68
2021/08/18 02:36:27;;;;;;;5.90;2.75;;;;;;;12.36;56.58;101162.31;5034241;28;20502;-67
2021/08/18 02:38:52;;;;;;;7.72;3.40;;;;;;;12.43;56.43;101168.13;5049925;28;20053;-67
2021/08/18 02:41:18;;;;;;;10.52;3.03;;;;;;;12.13;57.14;101155.41;5034455;28;20506;-66
2021/08/18 02:43:43;;;;;;;8.23;3.50;;;;;;;12.01;57.47;101155.94;5037050;28;20128;-69
2021/08/18 02:46:09;;;;;;;7.70;3.45;;;;;;;12.11;57.31;101159.88;5032529;28;20087;-68
2021/08/18 02:48:34;;;;;;;7.10;3.45;;;;;;;12.04;57.34;101154.06;5033497;28;20029;-71
2021/08/18 02:50:59;;;;;;;8.98;3.30;;;;;;;12.40;56.67;101163.00;5042424;28;20068;-72
2021/08/18 02:53:25;;;;;;;6.25;2.88;;;;;;;12.67;55.80;101156.59;5032703;28;20115;-70
2021/08/18 02:55:51;;;;;;;5.25;2.72;;;;;;;12.50;56.34;101153.84;5037075;28;20113;-71
2021/08/18 02:58:19;;;;;;;4.57;2.60;;;;;;;12.58;56.31;101154.38;5036668;28;20038;-68
2021/08/18 03:00:45;;;;;;;6.70;3.45;;;;;;;12.65;55.99;101161.03;5034083;28;20044;-68
2021/08/18 03:03:10;;;;;;;6.10;2.65;;;;;;;12.61;56.14;101154.22;5033763;28;20035;-68
2021/08/18 03:05:36;;;;;;;8.82;2.97;;;;;;;12.90;55.70;101154.72;5036271;28;20033;-67
2021/08/18 03:08:04;;;;;;;10.43;3.78;;;;;;;12.83;56.00;101163.81;5048324;28;20392;-68
2021/08/18 03:10:29;;;;;;;6.45;3.50;;;;;;;12.59;56.13;101165.69;5032710;28;20262;-66
2021/08/18 03:12:55;;;;;;;5.43;2.88;;;;;;;12.95;55.99;101171.09;5034238;28;20028;-67
2021/08/18 03:15:23;;;;;;;7.15;2.63;;;;;;;12.37;57.07;101169.25;5033964;28;20087;-66
2021/08/18 03:17:49;;;;;;;8.30;3.22;;;;;;;12.63;56.77;101167.28;5036198;28;20040;-66
2021/08/18 03:20:14;;;;;;;7.63;3.03;;;;;;;12.47;57.40;101164.47;5035837;28;20033;-66
2021/08/18 03:22:40;;;;;;;8.13;3.28;;;;;;;12.52;57.69;101180.84;5036043;28;20465;-66
2021/08/18 03:25:06;;;;;;;8.25;2.83;;;;;;;12.50;58.31;101177.44;5034267;28;20065;-65
2021/08/18 03:27:35;;;;;;;4.80;2.65;;;;;;;12.36;58.36;101182.44;5049965;28;20086;-66
2021/08/18 03:30:00;;;;;;;3.85;1.52;;;;;;;12.18;58.72;101171.81;5041305;28;20256;-65
2021/08/18 03:32:26;;;;;;;4.47;1.80;;;;;;;12.32;58.49;101178.22;5034451;28;20037;-72
2021/08/18 03:34:51;;;;;;;4.07;1.42;;;;;;;12.39;58.17;101174.44;5036466;28;20111;-72
2021/08/18 03:37:17;;;;;;;5.25;2.22;;;;;;;12.50;57.79;101167.78;5033078;28;20033;-72
2021/08/18 03:39:42;;;;;;;3.70;1.80;;;;;;;12.74;57.64;101156.34;5037941;28;20040;-73
2021/08/18 03:42:08;;;;;;;4.28;1.25;;;;;;;12.55;57.80;101172.84;5034050;28;20064;-74
2021/08/18 03:44:34;;;;;;;6.95;1.48;;;;;;;12.76;57.02;101167.59;5044278;28;20107;-73
2021/08/18 03:46:59;;;;;;;11.23;1.20;;;;;;;12.36;57.90;101164.09;5033968;28;20044;-71
2021/08/18 03:49:25;;;;;;;2.53;1.30;;;;;;;12.67;56.97;101163.59;5033428;28;20036;-72
2021/08/18 03:51:51;;;;;;;3.20;0.95;;;;;;;12.54;57.10;101152.78;5032760;28;20120;-71
2021/08/18 03:54:19;;;;;;;2.50;0.90;;;;;;;12.77;56.77;101143.09;5036433;28;20117;-71
2021/08/18 03:56:44;;;;;;;2.15;1.10;;;;;;;12.69;56.80;101146.91;5050309;28;20444;-71
2021/08/18 03:59:11;;;;;;;5.57;1.05;;;;;;;12.79;57.01;101141.25;5034260;28;20047;-67
2021/08/18 04:01:39;;;;;;;3.25;1.02;;;;;;;12.76;56.90;101136.13;5040646;28;20087;-68
2021/08/18 04:04:06;;;;;;;3.65;0.73;;;;;;;12.69;56.56;101140.78;5036780;28;20033;-68
2021/08/18 04:06:31;;;;;;;3.10;0.45;;;;;;;12.79;56.44;101142.09;5037961;28;20036;-68
2021/08/18 04:08:58;;;;;;;5.47;0.80;;;;;;;12.63;57.12;101141.91;5039874;28;20405;-67
2021/08/18 04:11:24;;;;;;;2.90;0.90;;;;;;;12.81;56.93;101144.66;5051708;28;20509;-68
2021/08/18 04:13:49;;;;;;;3.00;0.75;;;;;;;12.88;56.38;101146.91;5041961;28;20037;-69
2021/08/18 04:16:15;;;;;;;2.33;0.77;;;;;;;13.01;56.52;101147.22;5036271;28;20029;-69
2021/08/18 04:18:40;;;;;;;2.58;0.98;;;;;;;12.63;57.77;101147.13;5045899;28;20040;-68
2021/08/18 04:21:06;;;;;;;3.10;0.80;;;;;;;12.49;58.45;101155.63;5039853;28;20068;-69
2021/08/18 04:23:34;;;;;;;4.13;1.00;;;;;;;12.80;57.41;101163.91;5039062;28;20037;-69
2021/08/18 04:26:02;;;;;;;2.90;1.02;;;;;;;12.86;57.68;101171.53;5038260;28;20258;-70
2021/08/18 04:28:27;;;;;;;4.00;1.95;;;;;;;12.67;57.92;101174.09;5036912;28;21006;-69
2021/08/18 04:30:53;;;;;;;6.68;1.92;;;;;;;12.88;57.97;101172.31;5037165;28;20457;-67
2021/08/18 04:33:18;;;;;;;2.65;1.75;;;;;;;13.11;57.32;101174.72;5034630;28;20422;-68
2021/08/18 04:35:46;;;;;;;4.22;1.98;;;;;;;12.93;57.12;101167.69;5035745;28;20021;-68
2021/08/18 04:38:12;;;;;;;5.97;1.60;;;;;;;13.06;57.43;101168.84;5040479;28;20025;-67
2021/08/18 04:40:37;;;;;;;4.32;1.42;;;;;;;13.03;57.17;101171.63;5039426;28;20126;-69
2021/08/18 04:43:03;;;;;;;3.80;1.20;;;;;;;13.17;57.24;101170.13;5036126;28;20045;-68
2021/08/18 04:45:28;;;;;;;5.68;1.85;;;;;;;13.08;57.14;101174.03;5036586;28;20198;-68
2021/08/18 04:47:54;;;;;;;3.75;1.13;;;;;;;13.24;56.76;101159.25;5037448;28;20083;-68
2021/08/18 04:50:20;;;;;;;3.45;1.10;;;;;;;13.10;57.43;101157.28;5035378;28;20068;-68
2021/08/18 04:52:46;;;;;;;4.38;0.90;;;;;;;13.18;57.06;101154.28;5037194;28;20060;-68
2021/08/18 04:55:14;;;;;;;4.07;1.60;;;;;;;13.44;56.64;101142.56;5033480;28;20068;-68
2021/08/18 04:57:39;;;;;;;4.07;1.67;;;;;;;13.07;57.06;101144.31;5052508;28;20394;-68
2021/08/18 05:00:08;;;;;;;4.05;1.50;;;;;;;12.94;57.62;101144.94;5034385;28;20025;-69
2021/08/18 05:02:34;;;;;;;4.40;1.30;;;;;;;13.21;57.02;101134.94;5038277;28;20037;-70
2021/08/18 05:05:03;;;;;;;3.38;0.90;;;;;;;13.48;56.40;101141.50;5036436;28;20044;-69
2021/08/18 05:07:29;;;;;;;7.72;2.17;;;;;;;13.50;56.14;101129.16;5050526;28;20437;-69
2021/08/18 05:09:55;;;;;;;2.90;1.13;;;;;;;13.66;56.02;101137.16;5037963;28;20037;-68
2021/08/18 05:12:20;;;;;;;2.70;1.20;;;;;;;13.60;55.96;101133.97;5036670;28;20044;-68
2021/08/18 05:14:46;;;;;;;4.78;1.42;;;;;;;13.37;56.22;101137.69;5043818;28;20037;-68
2021/08/18 05:17:11;;;;;;;6.53;1.95;;;;;;;13.65;55.81;101131.97;5051301;28;20072;-68
2021/08/18 05:19:39;;;;;;;3.17;1.30;;;;;;;13.87;55.34;101140.50;5037103;28;20375;-68
2021/08/18 05:22:05;;;;;;;5.82;1.23;;;;;;;13.96;55.22;101140.97;5035206;28;20035;-68
2021/08/18 05:24:30;;;;;;;3.08;1.17;;;;;;;13.99;54.92;101140.84;5036185;28;20375;-68
2021/08/18 05:26:57;;;;;;;3.88;1.25;;;;;;;13.48;56.18;101145.91;5034144;28;20124;-69
2021/08/18 05:29:22;;;;;;;4.53;1.23;;;;;;;12.89;57.54;101147.75;5037211;28;20558;-68
2021/08/18 05:31:48;;;;;;;4.72;1.35;;;;;;;12.97;57.25;101148.28;5037635;28;20040;-69
2021/08/18 05:34:14;;;;;;;5.78;1.40;;;;;;;13.41;55.99;101144.50;5044088;28;20029;-68
2021/08/18 05:36:39;;;;;;;8.82;1.15;;;;;;;13.50;55.92;101139.66;5037090;28;20033;-69
2021/08/18 05:39:09;;;;;;;3.70;1.38;;;;;;;13.27;56.43;101140.75;5035650;28;20526;-70
2021/08/18 05:41:39;;;;;;;7.65;2.22;;;;;;;13.70;55.59;101143.13;5036450;28;20494;-70
2021/08/18 05:44:04;;;;;;;2.08;0.80;;;;;;;13.82;55.37;101137.25;5048526;28;20105;-70
2021/08/18 05:46:29;;;;;;;10.70;1.80;;;;;;;13.57;55.37;101139.41;5056733;28;20052;-67
2021/08/18 05:48:55;;;;;;;5.32;1.08;;;;;;;13.72;55.25;101146.53;5053519;28;20044;-67
2021/08/18 05:51:20;;;;;;;2.88;0.77;;;;;;;13.86;54.55;101149.31;5044740;28;20055;-68
2021/08/18 05:53:50;;;;;;;6.07;1.08;;;;;;;13.79;54.01;101150.56;5042374;28;20058;-68
2021/08/18 05:56:18;;;;;;;10.00;1.33;;;;;;;13.71;54.33;101143.03;5038588;28;20041;-66
2021/08/18 05:58:44;;;;;;;6.47;1.00;;;;;;;13.62;54.25;101153.16;5037442;28;20037;-67
2021/08/18 06:01:09;;;;;;;3.03;0.98;;;;;;;13.93;53.82;101153.34;5036543;28;20044;-68
2021/08/18 06:03:36;;;;;;;8.57;1.20;;;;;;;13.82;53.63;101149.56;5044071;28;20482;-68
2021/08/18 06:06:01;;;;;;;2.72;1.10;;;;;;;14.05;53.15;101148.41;5038143;28;20037;-68
2021/08/18 06:08:26;;;;;;;4.72;1.08;;;;;;;14.11;53.27;101145.47;5034907;28;20021;-67
2021/08/18 06:10:52;;;;;;;6.30;2.15;;;;;;;14.13;53.25;101154.97;5037159;28;20449;-67
2021/08/18 06:13:17;;;;;;;6.22;1.40;;;;;;;13.86;53.88;101149.31;5042739;28;20116;-67
2021/08/18 06:15:43;;;;;;;4.35;1.30;;;;;;;14.15;53.45;101154.91;5038682;28;20060;-67
2021/08/18 06:18:08;;;;;;;2.08;1.13;;;;;;;13.97;53.51;101163.72;5035716;28;20682;-68
2021/08/18 06:20:34;;;;;;;3.05;1.15;;;;;;;13.64;54.30;101157.41;5047325;28;20029;-67
2021/08/18 06:22:59;;;;;;;4.97;1.27;;;;;;;13.53;55.11;101150.00;5036466;28;20045;-67
2021/08/18 06:25:25;;;;;;;4.53;1.35;;;;;;;13.83;54.68;101157.38;5033807;28;20064;-69
2021/08/18 06:27:51;;;;;;;7.10;1.38;;;;;;;14.09;54.09;101157.84;5036139;28;20034;-68
2021/08/18 06:30:16;;;;;;;3.75;1.23;;;;;;;13.93;54.26;101153.34;5056899;28;20044;-68
2021/08/18 06:32:42;;;;;;;3.55;1.08;;;;;;;14.24;53.67;101156.22;5035353;28;20044;-67
2021/08/18 06:35:14;;;;;;;6.05;1.25;;;;;;;14.65;53.19;101161.97;5033384;28;20029;-68
2021/08/18 06:37:40;;;;;;;1.98;1.08;;;;;;;14.64;53.20;101160.28;5035159;28;20029;-68
2021/08/18 06:40:07;;;;;;;3.30;1.42;;;;;;;14.72;52.92;101160.75;5035258;28;20124;-69
2021/08/18 06:42:33;;;;;;;4.78;1.90;;;;;;;15.08;52.69;101164.09;5035631;28;20041;-69
2021/08/18 06:44:58;;;;;;;5.57;1.33;;;;;;;14.76;52.45;101164.88;5034506;28;20033;-69
2021/08/18 06:47:24;;;;;;;8.77;1.88;;;;;;;14.87;52.76;101168.72;5038892;28;20041;-68
2021/08/18 06:49:49;;;;;;;3.28;1.50;;;;;;;14.81;52.64;101176.94;5037235;28;20266;-68
2021/08/18 06:52:15;;;;;;;8.18;1.33;;;;;;;14.71;52.76;101169.53;5037543;28;20032;-68
2021/08/18 06:54:40;;;;;;;4.95;2.13;;;;;;;14.80;52.77;101180.53;5036119;28;20040;-68
2021/08/18 06:57:06;;;;;;;3.83;1.80;;;;;;;14.66;53.20;101171.56;5039469;28;20033;-69
2021/08/18 06:59:31;;;;;;;6.50;1.90;;;;;;;14.29;53.83;101170.81;5035524;28;20035;-68
2021/08/18 07:01:57;;;;;;;7.20;2.55;;;;;;;14.27;53.81;101174.44;5033577;28;20478;-68
2021/08/18 07:04:22;;;;;;;5.28;1.83;;;;;;;14.41;53.38;101173.78;5037366;28;20032;-70
2021/08/18 07:06:48;;;;;;;2.75;1.00;;;;;;;14.40;53.51;101166.78;5034091;28;20029;-71
2021/08/18 07:09:13;;;;;;;5.47;2.35;;;;;;;14.51;53.68;101172.38;5035310;28;20056;-71
2021/08/18 07:11:39;;;;;;;5.13;2.30;;;;;;;14.37;53.41;101167.81;5032501;28;20544;-69
2021/08/18 07:14:05;;;;;;;6.57;2.60;;;;;;;14.68;53.38;101174.97;5034274;28;20033;-70
2021/08/18 07:16:35;;;;;;;5.28;2.40;;;;;;;14.91;53.28;101167.66;5032210;28;20497;-72
2021/08/18 07:19:01;;;;;;;8.77;2.97;;;;;;;14.74;53.03;101165.91;5050402;28;20038;-69
2021/08/18 07:21:27;;;;;;;5.60;2.42;;;;;;;14.86;53.57;101161.78;5032924;28;20039;-68
2021/08/18 07:23:54;;;;;;;6.75;2.13;;;;;;;14.91;53.35;101172.91;5032804;28;20108;-68
2021/08/18 07:26:22;;;;;;;3.40;1.95;;;;;;;15.52;52.87;101159.00;5043706;28;20316;-68
2021/08/18 07:28:48;;;;;;;8.65;1.63;;;;;;;15.95;51.18;101167.13;5051363;28;20025;-68
2021/08/18 07:31:14;;;;;;;9.30;2.38;;;;;;;16.20;50.18;101160.44;5035007;28;20056;-68
2021/08/18 07:33:39;;;;;;;5.72;1.50;;;;;;;16.51;50.12;101163.84;5035779;28;20297;-68
2021/08/18 07:36:05;;;;;;;5.07;1.67;;;;;;;16.65;49.38;101161.22;5036850;28;20508;-68
2021/08/18 07:38:30;;;;;;;4.32;1.73;;;;;;;16.30;49.87;101163.38;5032189;28;20102;-68
2021/08/18 07:40:56;;;;;;;4.47;1.83;;;;;;;16.00;49.73;101161.59;5044281;28;20414;-68
2021/08/18 07:43:21;;;;;;;2.78;1.05;;;;;;;16.33;50.83;101166.69;5039276;28;20037;-68
2021/08/18 07:45:47;;;;;;;7.07;1.55;;;;;;;16.66;50.14;101165.56;5039722;28;20036;-70
2021/08/18 07:48:13;;;;;;;3.88;1.60;;;;;;;16.66;49.10;101162.91;5040052;28;20043;-67
2021/08/18 07:50:39;;;;;;;4.60;1.45;;;;;;;16.40;48.35;101162.72;5041839;28;20491;-67
2021/08/18 07:53:05;;;;;;;4.40;1.10;;;;;;;16.38;49.04;101158.47;5040057;28;20068;-68
2021/08/18 07:55:30;;;;;;;4.68;1.73;;;;;;;16.48;48.73;101164.03;5022021;28;20029;-68
2021/08/18 07:57:56;;;;;;;10.38;1.63;;;;;;;16.85;47.62;101161.84;5038974;28;20510;-68
2021/08/18 08:00:21;;;;;;;5.40;1.58;;;;;;;17.36;47.51;101162.13;5036750;28;20040;-67
2021/08/18 08:02:47;;;;;;;2.00;1.15;;;;;;;17.88;46.74;101158.75;5041032;28;20090;-69
2021/08/18 08:05:14;;;;;;;7.20;1.65;;;;;;;17.85;45.33;101158.94;5039316;28;20079;-67
2021/08/18 08:07:41;;;;;;;5.20;2.05;;;;;;;17.39;46.34;101167.22;5038267;28;20037;-67
2021/08/18 08:10:08;;;;;;;4.55;1.63;;;;;;;17.04;47.39;101170.28;5037739;28;20080;-66
2021/08/18 08:12:34;;;;;;;7.70;1.60;;;;;;;16.51;48.00;101174.41;5038030;28;20084;-67
2021/08/18 08:14:59;;;;;;;5.18;1.85;;;;;;;16.45;49.02;101174.78;5036485;28;20032;-68
2021/08/18 08:17:25;;;;;;;5.30;1.30;;;;;;;16.30;49.30;101179.19;5037280;28;20231;-67
2021/08/18 08:19:51;;;;;;;11.70;2.58;;;;;;;16.22;49.77;101184.94;5041227;28;20057;-67
2021/08/18 08:22:17;;;;;;;8.02;1.73;;;;;;;15.86;50.90;101196.63;5042142;28;20120;-67
2021/08/18 08:24:45;;;;;;;4.40;2.08;;;;;;;15.24;52.66;101187.81;5040138;28;20033;-67
2021/08/18 08:27:14;;;;;;;6.15;1.70;;;;;;;14.55;54.50;101181.81;5039043;28;20095;-69
2021/08/18 08:29:39;;;;;;;4.50;1.63;;;;;;;14.10;55.93;101175.31;5038353;28;20061;-68
2021/08/18 08:32:07;;;;;;;5.57;2.00;;;;;;;13.87;56.33;101168.56;5037520;28;20079;-68
2021/08/18 08:34:33;;;;;;;5.95;2.45;;;;;;;14.07;56.41;101180.72;5036674;28;20086;-68
2021/08/18 08:36:58;;;;;;;6.43;1.70;;;;;;;14.14;56.06;101182.09;5037728;28;20045;-67
2021/08/18 08:39:24;;;;;;;3.83;1.83;;;;;;;14.10;56.31;101181.41;5036118;28;20046;-69
2021/08/18 08:41:49;;;;;;;5.43;2.20;;;;;;;14.01;57.04;101186.25;5050351;28;20303;-69
2021/08/18 08:44:17;;;;;;;4.70;1.92;;;;;;;14.23;56.38;101181.66;5040100;28;20263;-69
2021/08/18 08:46:48;;;;;;;5.93;2.72;;;;;;;14.31;56.35;101187.34;5033638;28;20056;-69
2021/08/18 08:49:18;;;;;;;2.38;1.58;;;;;;;14.39;56.43;101188.75;5036302;28;20542;-69
2021/08/18 08:51:45;;;;;;;3.65;2.53;;;;;;;14.22;56.82;101185.19;5050476;28;20509;-68
2021/08/18 08:54:13;;;;;;;3.35;2.05;;;;;;;14.35;56.56;101194.16;5036255;28;20528;-69
2021/08/18 08:56:39;;;;;;;21.17;9.10;;;;;;;14.58;56.44;101194.78;5034409;28;20329;-69
2021/08/18 08:59:05;;;;;;;11.90;2.10;;;;;;;14.51;56.29;101190.78;5037835;28;20407;-69
2021/08/18 09:01:59;;;;;;;7.55;1.98;;;;;;;14.69;55.75;101192.44;5036076;28;20409;-69
2021/08/18 09:04:36;;;;;;;7.30;2.03;;;;;;;14.62;56.07;101196.34;5036696;28;20243;-69
2021/08/18 09:07:12;;;;;;;5.85;1.65;;;;;;;14.53;56.00;101186.31;5035708;28;20047;-69
2021/08/18 09:09:40;;;;;;;4.47;2.25;;;;;;;14.94;55.47;101183.25;5051811;28;20033;-68
2021/08/18 09:12:14;;;;;;;6.80;1.30;;;;;;;15.42;54.97;101183.34;5035115;28;20033;-68
2021/08/18 09:14:41;;;;;;;4.50;1.80;;;;;;;16.07;53.42;101185.81;5041802;28;20036;-68
2021/08/18 09:17:42;;;;;;;3.15;2.08;;;;;;;16.67;52.66;101185.75;5041126;28;20067;-69
2021/08/18 09:20:11;;;;;;;7.03;1.80;;;;;;;16.90;51.67;101184.34;5001148;28;20527;-68
2021/08/18 09:22:58;;;;;;;5.57;1.98;;;;;;;17.06;50.56;101183.41;5031491;28;20041;-68
2021/08/18 09:25:26;;;;;;;7.00;1.83;;;;;;;17.21;50.80;101191.19;5036089;28;20055;-68
2021/08/18 09:28:01;;;;;;;6.53;1.33;;;;;;;17.48;50.11;101184.28;5036938;28;20483;-69
2021/08/18 09:30:36;;;;;;;1.88;1.13;;;;;;;17.85;48.50;101182.75;5037512;28;20051;-69
2021/08/18 09:33:11;;;;;;;3.58;1.70;;;;;;;18.08;48.92;101180.38;5039002;28;20624;-69
2021/08/18 09:35:37;;;;;;;6.45;2.65;;;;;;;17.41;49.51;101181.16;5039807;28;20103;-68
2021/08/18 09:38:09;;;;;;;3.35;1.90;;;;;;;16.77;51.06;101180.78;5038978;28;20519;-69
2021/08/18 09:40:38;;;;;;;4.47;2.47;;;;;;;16.73;52.03;101174.81;5035789;28;20052;-68
2021/08/18 09:43:12;;;;;;;10.02;1.58;;;;;;;16.68;52.12;101182.16;5034772;28;20436;-68
2021/08/18 09:45:42;;;;;;;3.55;1.00;;;;;;;16.48;51.80;101169.31;5034185;28;20121;-68
2021/08/18 09:48:18;;;;;;;6.47;2.45;;;;;;;16.55;51.27;101170.63;5036757;28;20025;-68
2021/08/18 09:50:59;;;;;;;8.10;1.25;;;;;;;16.43;51.20;101164.31;5035293;28;20067;-68
2021/08/18 09:53:40;;;;;;;3.70;1.08;;;;;;;16.60;51.39;101160.69;5052799;28;20167;-68
2021/08/18 09:56:09;;;;;;;2.53;0.50;;;;;;;16.99;50.26;101159.16;5037876;28;20041;-68
2021/08/18 09:58:37;;;;;;;3.85;0.43;;;;;;;17.30;49.38;101157.22;5052163;28;20107;-68
2021/08/18 10:01:14;;;;;;;3.70;0.30;;;;;;;17.72;47.81;101158.06;5038714;28;20046;-67
2021/08/18 10:03:47;;;;;;;1.98;0.40;;;;;;;18.08;46.99;101159.22;5039046;28;20029;-69
2021/08/18 10:06:13;;;;;;;4.25;0.60;;;;;;;16.75;49.00;101157.09;5036540;28;20029;-68
2021/08/18 10:08:42;;;;;;;5.32;0.75;;;;;;;17.11;49.06;101153.09;5039749;28;20044;-67
2021/08/18 10:11:11;;;;;;;3.10;0.52;;;;;;;18.12;48.33;101147.44;5043909;28;20053;-68
2021/08/18 10:13:46;;;;;;;1.15;0.50;;;;;;;17.63;46.98;101147.16;5038438;28;20025;-67
2021/08/18 10:16:13;;;;;;;7.22;0.93;;;;;;;18.05;46.48;101147.00;5036974;28;20438;-67
2021/08/18 10:18:47;;;;;;;3.42;0.63;;;;;;;17.89;46.82;101155.13;5038631;28;20208;-68
2021/08/18 10:21:32;;;;;;;3.20;1.20;;;;;;;17.61;47.89;101151.69;5032954;28;20040;-68
2021/08/18 10:24:04;;;;;;;2.65;0.93;;;;;;;17.88;47.59;101149.97;5032976;28;20566;-69
2021/08/18 10:26:38;;;;;;;2.00;1.30;;;;;;;17.69;47.30;101143.22;5030853;28;20025;-69
2021/08/18 10:29:04;;;;;;;6.57;1.10;;;;;;;17.51;48.32;101145.28;5035774;28;20068;-67
2021/08/18 10:31:42;;;;;;;2.88;1.02;;;;;;;17.83;47.81;101147.63;5028428;28;20544;-67
2021/08/18 10:34:23;;;;;;;5.20;0.93;;;;;;;17.74;47.91;101142.91;5033439;28;20384;-68
2021/08/18 10:36:53;;;;;;;13.00;0.80;;;;;;;17.64;48.49;101145.34;5034730;28;20036;-67
2021/08/18 10:39:21;;;;;;;6.70;0.98;;;;;;;18.29;47.13;101152.47;5049579;28;20037;-67
2021/08/18 10:42:06;;;;;;;2.90;0.40;;;;;;;18.66;47.57;101149.94;5033962;28;20561;-68
2021/08/18 10:44:47;;;;;;;4.50;0.93;;;;;;;19.18;44.76;101156.84;5034050;28;21100;-68
2021/08/18 10:47:27;;;;;;;1.80;0.40;;;;;;;20.32;43.20;101143.94;5031794;28;20040;-68
2021/08/18 10:49:55;;;;;;;3.78;1.00;;;;;;;19.05;45.18;101148.06;5030433;28;20037;-71
2021/08/18 10:52:30;;;;;;;3.60;0.50;;;;;;;19.03;45.72;101144.69;5031886;28;20068;-68
2021/08/18 10:55:15;;;;;;;4.80;1.08;;;;;;;18.35;47.51;101140.63;5035251;28;20041;-68
2021/08/18 10:57:47;;;;;;;3.78;0.73;;;;;;;18.33;47.32;101137.25;5036702;28;20037;-68
2021/08/18 11:00:14;;;;;;;2.85;0.60;;;;;;;17.91;47.66;101142.66;5041730;28;20033;-68
2021/08/18 11:02:52;;;;;;;4.07;0.77;;;;;;;18.85;46.67;101137.09;5041691;28;20041;-67
2021/08/18 11:05:19;;;;;;;4.75;0.65;;;;;;;19.29;46.30;101138.34;5039607;28;20041;-68
2021/08/18 11:08:09;;;;;;;2.38;1.10;;;;;;;20.37;43.85;101127.66;5036012;28;20041;-68
2021/08/18 11:10:37;;;;;;;3.00;0.73;;;;;;;19.97;42.96;101130.72;5036162;28;20067;-68
2021/08/18 11:13:06;;;;;;;3.00;1.35;;;;;;;18.78;45.07;101127.88;5033147;28;20025;-68
2021/08/18 11:15:33;;;;;;;2.58;1.48;;;;;;;19.33;43.38;101132.84;5036448;28;20040;-68
2021/08/18 11:17:58;;;;;;;7.13;2.35;;;;;;;19.00;43.61;101129.03;5033055;28;20320;-68
2021/08/18 11:20:29;;;;;;;3.75;1.75;;;;;;;19.54;42.46;101119.81;5036056;28;20090;-72
2021/08/18 11:22:56;;;;;;;5.03;1.77;;;;;;;19.31;43.34;101114.41;5033969;28;20033;-68
2021/08/18 11:25:24;;;;;;;4.85;2.22;;;;;;;18.99;44.32;101132.63;5037857;28;20295;-68
2021/08/18 11:27:51;;;;;;;6.80;2.35;;;;;;;19.05;44.14;101124.25;5036551;28;20201;-69